sensor_id;sensor_type;location;lat;lon;timestamp;temperature;humidity
17202;DHT22;8717;53.588;10.176;2022-09-09T00:02:15;13.50;99.90
17202;DHT22;8717;53.588;10.176;2022-09-09T00:04:46;13.50;99.90
17202;DHT22;8717;53.588;10.176;2022-09-09T00:07:21;13.50;99.90
17202;DHT22;8717;53.588;10.176;2022-09-09T00:10:01;13.50;99.90
17202;DHT22;8717;53.588;10.176;2022-09-09T00:12:36;13.50;99.90
17202;DHT22;8717;53.588;10.176;2022-09-09T00:15:11;13.50;99.90
17202;DHT22;8717;53.588;10.176;2022-09-09T00:17:44;13.50;99.90
17202;DHT22;8717;53.588;10.176;2022-09-09T00:20:14;13.50;99.90
17202;DHT22;8717;53.588;10.176;2022-09-09T00:22:48;13.50;99.90
17202;DHT22;8717;53.588;10.176;2022-09-09T00:25:23;13.50;99.90
17202;DHT22;8717;53.588;10.176;2022-09-09T00:27:53;13.50;99.90
17202;DHT22;8717;53.588;10.176;2022-09-09T00:30:23;13.50;99.90
17202;DHT22;8717;53.588;10.176;2022-09-09T00:32:53;13.50;99.90
17202;DHT22;8717;53.588;10.176;2022-09-09T00:35:25;13.50;99.90
17202;DHT22;8717;53.588;10.176;2022-09-09T00:37:58;13.40;99.90
17202;DHT22;8717;53.588;10.176;2022-09-09T00:40:31;13.40;99.90
17202;DHT22;8717;53.588;10.176;2022-09-09T00:43:12;13.40;99.90
17202;DHT22;8717;53.588;10.176;2022-09-09T00:45:57;13.40;99.90
17202;DHT22;8717;53.588;10.176;2022-09-09T00:48:32;13.40;99.90
17202;DHT22;8717;53.588;10.176;2022-09-09T00:51:05;13.40;99.90
17202;DHT22;8717;53.588;10.176;2022-09-09T00:53:51;13.40;99.90
17202;DHT22;8717;53.588;10.176;2022-09-09T00:56:25;13.40;99.90
17202;DHT22;8717;53.588;10.176;2022-09-09T00:59:04;13.40;99.90
17202;DHT22;8717;53.588;10.176;2022-09-09T01:01:33;13.40;99.90
17202;DHT22;8717;53.588;10.176;2022-09-09T01:04:04;13.40;99.90
17202;DHT22;8717;53.588;10.176;2022-09-09T01:06:37;13.40;99.90
17202;DHT22;8717;53.588;10.176;2022-09-09T01:09:13;13.50;99.90
17202;DHT22;8717;53.588;10.176;2022-09-09T01:11:49;13.40;99.90
17202;DHT22;8717;53.588;10.176;2022-09-09T01:14:29;13.40;99.90
17202;DHT22;8717;53.588;10.176;2022-09-09T01:17:03;13.40;99.90
17202;DHT22;8717;53.588;10.176;2022-09-09T01:19:40;13.40;99.90
17202;DHT22;8717;53.588;10.176;2022-09-09T01:22:22;13.40;99.90
17202;DHT22;8717;53.588;10.176;2022-09-09T01:25:11;13.40;99.90
17202;DHT22;8717;53.588;10.176;2022-09-09T01:27:56;13.30;99.90
17202;DHT22;8717;53.588;10.176;2022-09-09T01:30:25;13.30;99.90
17202;DHT22;8717;53.588;10.176;2022-09-09T01:32:56;13.30;99.90
17202;DHT22;8717;53.588;10.176;2022-09-09T01:35:32;13.30;99.90
17202;DHT22;8717;53.588;10.176;2022-09-09T01:38:02;13.30;99.90
17202;DHT22;8717;53.588;10.176;2022-09-09T01:40:29;13.30;99.90
17202;DHT22;8717;53.588;10.176;2022-09-09T01:42:58;13.30;99.90
17202;DHT22;8717;53.588;10.176;2022-09-09T01:45:25;13.30;99.90
17202;DHT22;8717;53.588;10.176;2022-09-09T01:47:52;13.30;99.90
17202;DHT22;8717;53.588;10.176;2022-09-09T01:50:28;13.30;99.90
17202;DHT22;8717;53.588;10.176;2022-09-09T01:52:59;13.30;99.90
17202;DHT22;8717;53.588;10.176;2022-09-09T01:55:32;13.30;99.90
17202;DHT22;8717;53.588;10.176;2022-09-09T01:58:15;13.30;99.90
17202;DHT22;8717;53.588;10.176;2022-09-09T02:00:54;13.30;99.90
17202;DHT22;8717;53.588;10.176;2022-09-09T02:03:26;13.30;99.90
17202;DHT22;8717;53.588;10.176;2022-09-09T02:06:06;13.20;99.90
17202;DHT22;8717;53.588;10.176;2022-09-09T02:08:44;13.30;99.90
17202;DHT22;8717;53.588;10.176;2022-09-09T02:11:14;13.20;99.90
17202;DHT22;8717;53.588;10.176;2022-09-09T02:14:05;13.20;99.90
17202;DHT22;8717;53.588;10.176;2022-09-09T02:16:42;13.20;99.90
17202;DHT22;8717;53.588;10.176;2022-09-09T02:19:13;13.20;99.90
17202;DHT22;8717;53.588;10.176;2022-09-09T02:21:56;13.20;99.90
17202;DHT22;8717;53.588;10.176;2022-09-09T02:24:25;13.20;99.90
17202;DHT22;8717;53.588;10.176;2022-09-09T02:27:05;13.20;99.90
17202;DHT22;8717;53.588;10.176;2022-09-09T02:29:36;13.20;99.90
17202;DHT22;8717;53.588;10.176;2022-09-09T02:32:06;13.20;99.90
17202;DHT22;8717;53.588;10.176;2022-09-09T02:34:40;13.20;99.90
17202;DHT22;8717;53.588;10.176;2022-09-09T02:37:11;13.20;99.90
17202;DHT22;8717;53.588;10.176;2022-09-09T02:39:42;13.20;99.90
17202;DHT22;8717;53.588;10.176;2022-09-09T02:42:13;13.20;99.90
17202;DHT22;8717;53.588;10.176;2022-09-09T02:44:44;13.20;99.90
17202;DHT22;8717;53.588;10.176;2022-09-09T02:47:25;13.20;99.90
17202;DHT22;8717;53.588;10.176;2022-09-09T02:50:03;13.20;99.90
17202;DHT22;8717;53.588;10.176;2022-09-09T02:52:38;13.20;99.90
17202;DHT22;8717;53.588;10.176;2022-09-09T02:55:18;13.20;99.90
17202;DHT22;8717;53.588;10.176;2022-09-09T02:57:47;13.20;99.90
17202;DHT22;8717;53.588;10.176;2022-09-09T03:00:22;13.20;99.90
17202;DHT22;8717;53.588;10.176;2022-09-09T03:02:50;13.20;99.90
17202;DHT22;8717;53.588;10.176;2022-09-09T03:05:17;13.20;99.90
17202;DHT22;8717;53.588;10.176;2022-09-09T03:07:44;13.10;99.90
17202;DHT22;8717;53.588;10.176;2022-09-09T03:10:11;13.20;99.90
17202;DHT22;8717;53.588;10.176;2022-09-09T03:12:39;13.10;99.90
17202;DHT22;8717;53.588;10.176;2022-09-09T03:15:07;13.20;99.90
17202;DHT22;8717;53.588;10.176;2022-09-09T03:17:37;13.10;99.90
17202;DHT22;8717;53.588;10.176;2022-09-09T03:20:04;13.20;99.90
17202;DHT22;8717;53.588;10.176;2022-09-09T03:22:31;13.10;99.90
17202;DHT22;8717;53.588;10.176;2022-09-09T03:25:00;13.10;99.90
17202;DHT22;8717;53.588;10.176;2022-09-09T03:27:27;13.10;99.90
17202;DHT22;8717;53.588;10.176;2022-09-09T03:29:54;13.00;99.90
17202;DHT22;8717;53.588;10.176;2022-09-09T03:32:23;13.10;99.90
17202;DHT22;8717;53.588;10.176;2022-09-09T03:34:53;13.10;99.90
17202;DHT22;8717;53.588;10.176;2022-09-09T03:37:20;13.10;99.90
17202;DHT22;8717;53.588;10.176;2022-09-09T03:39:49;13.10;99.90
17202;DHT22;8717;53.588;10.176;2022-09-09T03:42:17;13.00;99.90
17202;DHT22;8717;53.588;10.176;2022-09-09T03:44:45;13.00;99.90
17202;DHT22;8717;53.588;10.176;2022-09-09T03:47:17;13.00;99.90
17202;DHT22;8717;53.588;10.176;2022-09-09T03:49:44;13.00;99.90
17202;DHT22;8717;53.588;10.176;2022-09-09T03:52:13;12.90;99.90
17202;DHT22;8717;53.588;10.176;2022-09-09T03:54:40;12.90;99.90
17202;DHT22;8717;53.588;10.176;2022-09-09T03:57:08;12.90;99.90
17202;DHT22;8717;53.588;10.176;2022-09-09T03:59:35;12.90;99.90
17202;DHT22;8717;53.588;10.176;2022-09-09T04:02:03;12.90;99.90
17202;DHT22;8717;53.588;10.176;2022-09-09T04:04:30;12.90;99.90
17202;DHT22;8717;53.588;10.176;2022-09-09T04:06:56;12.90;99.90
17202;DHT22;8717;53.588;10.176;2022-09-09T04:09:24;12.90;99.90
17202;DHT22;8717;53.588;10.176;2022-09-09T04:11:51;12.80;99.90
17202;DHT22;8717;53.588;10.176;2022-09-09T04:14:20;12.90;99.90
17202;DHT22;8717;53.588;10.176;2022-09-09T04:16:47;12.80;99.90
17202;DHT22;8717;53.588;10.176;2022-09-09T04:19:16;12.80;99.90
17202;DHT22;8717;53.588;10.176;2022-09-09T04:21:43;12.80;99.90
17202;DHT22;8717;53.588;10.176;2022-09-09T04:24:11;12.80;99.90
17202;DHT22;8717;53.588;10.176;2022-09-09T04:26:39;12.80;99.90
17202;DHT22;8717;53.588;10.176;2022-09-09T04:29:06;12.80;99.90
17202;DHT22;8717;53.588;10.176;2022-09-09T04:31:33;12.70;99.90
17202;DHT22;8717;53.588;10.176;2022-09-09T04:34:00;12.80;99.90
17202;DHT22;8717;53.588;10.176;2022-09-09T04:36:31;12.80;99.90
17202;DHT22;8717;53.588;10.176;2022-09-09T04:39:01;12.70;99.90
17202;DHT22;8717;53.588;10.176;2022-09-09T04:41:28;12.70;99.90
17202;DHT22;8717;53.588;10.176;2022-09-09T04:43:58;12.70;99.90
17202;DHT22;8717;53.588;10.176;2022-09-09T04:46:26;12.70;99.90
17202;DHT22;8717;53.588;10.176;2022-09-09T04:48:53;12.70;99.90
17202;DHT22;8717;53.588;10.176;2022-09-09T04:51:21;12.70;99.90
17202;DHT22;8717;53.588;10.176;2022-09-09T04:53:49;12.70;99.90
17202;DHT22;8717;53.588;10.176;2022-09-09T04:56:22;12.70;99.90
17202;DHT22;8717;53.588;10.176;2022-09-09T04:58:54;12.70;99.90
17202;DHT22;8717;53.588;10.176;2022-09-09T05:01:26;12.70;99.90
17202;DHT22;8717;53.588;10.176;2022-09-09T05:03:59;12.70;99.90
17202;DHT22;8717;53.588;10.176;2022-09-09T05:06:26;12.70;99.90
17202;DHT22;8717;53.588;10.176;2022-09-09T05:08:56;12.80;99.90
17202;DHT22;8717;53.588;10.176;2022-09-09T05:11:28;12.80;99.90
17202;DHT22;8717;53.588;10.176;2022-09-09T05:14:00;12.80;99.90
17202;DHT22;8717;53.588;10.176;2022-09-09T05:16:30;12.80;99.90
17202;DHT22;8717;53.588;10.176;2022-09-09T05:18:57;12.70;99.90
17202;DHT22;8717;53.588;10.176;2022-09-09T05:21:26;12.80;99.90
17202;DHT22;8717;53.588;10.176;2022-09-09T05:23:54;12.70;99.90
17202;DHT22;8717;53.588;10.176;2022-09-09T05:26:22;12.70;99.90
17202;DHT22;8717;53.588;10.176;2022-09-09T05:28:51;12.70;99.90
17202;DHT22;8717;53.588;10.176;2022-09-09T05:31:20;12.70;99.90
17202;DHT22;8717;53.588;10.176;2022-09-09T05:33:51;12.70;99.90
17202;DHT22;8717;53.588;10.176;2022-09-09T05:36:20;12.60;99.90
17202;DHT22;8717;53.588;10.176;2022-09-09T05:38:50;12.60;99.90
17202;DHT22;8717;53.588;10.176;2022-09-09T05:41:19;12.60;99.90
17202;DHT22;8717;53.588;10.176;2022-09-09T05:43:46;12.60;99.90
17202;DHT22;8717;53.588;10.176;2022-09-09T05:46:16;12.70;99.90
17202;DHT22;8717;53.588;10.176;2022-09-09T05:48:45;12.70;99.90
17202;DHT22;8717;53.588;10.176;2022-09-09T05:51:15;12.70;99.90
17202;DHT22;8717;53.588;10.176;2022-09-09T05:53:44;12.80;99.90
17202;DHT22;8717;53.588;10.176;2022-09-09T05:56:14;12.80;99.90
17202;DHT22;8717;53.588;10.176;2022-09-09T05:58:45;12.80;99.90
17202;DHT22;8717;53.588;10.176;2022-09-09T06:01:15;12.90;99.90
17202;DHT22;8717;53.588;10.176;2022-09-09T06:03:43;13.00;99.90
17202;DHT22;8717;53.588;10.176;2022-09-09T06:06:11;13.00;99.90
17202;DHT22;8717;53.588;10.176;2022-09-09T06:08:41;13.00;99.90
17202;DHT22;8717;53.588;10.176;2022-09-09T06:11:11;13.10;99.90
17202;DHT22;8717;53.588;10.176;2022-09-09T06:13:39;13.10;99.90
17202;DHT22;8717;53.588;10.176;2022-09-09T06:16:08;13.10;99.90
17202;DHT22;8717;53.588;10.176;2022-09-09T06:18:39;13.20;99.90
17202;DHT22;8717;53.588;10.176;2022-09-09T06:21:08;13.30;99.90
17202;DHT22;8717;53.588;10.176;2022-09-09T06:23:35;13.30;99.90
17202;DHT22;8717;53.588;10.176;2022-09-09T06:26:06;13.30;99.90
17202;DHT22;8717;53.588;10.176;2022-09-09T06:28:34;13.40;99.90
17202;DHT22;8717;53.588;10.176;2022-09-09T06:31:04;13.50;99.90
17202;DHT22;8717;53.588;10.176;2022-09-09T06:33:32;13.60;99.90
17202;DHT22;8717;53.588;10.176;2022-09-09T06:36:01;13.70;99.90
17202;DHT22;8717;53.588;10.176;2022-09-09T06:38:29;13.80;99.90
17202;DHT22;8717;53.588;10.176;2022-09-09T06:40:57;13.90;99.90
17202;DHT22;8717;53.588;10.176;2022-09-09T06:43:26;14.00;99.90
17202;DHT22;8717;53.588;10.176;2022-09-09T06:45:55;14.00;99.90
17202;DHT22;8717;53.588;10.176;2022-09-09T06:48:24;14.10;99.90
17202;DHT22;8717;53.588;10.176;2022-09-09T06:51:00;14.10;99.90
17202;DHT22;8717;53.588;10.176;2022-09-09T06:53:28;14.20;99.90
17202;DHT22;8717;53.588;10.176;2022-09-09T06:55:55;14.20;99.90
17202;DHT22;8717;53.588;10.176;2022-09-09T06:58:22;14.30;99.90
17202;DHT22;8717;53.588;10.176;2022-09-09T07:00:50;14.40;99.90
17202;DHT22;8717;53.588;10.176;2022-09-09T07:03:18;14.50;99.90
17202;DHT22;8717;53.588;10.176;2022-09-09T07:05:54;14.60;99.90
17202;DHT22;8717;53.588;10.176;2022-09-09T07:08:22;14.60;99.90
17202;DHT22;8717;53.588;10.176;2022-09-09T07:10:50;14.70;99.90
17202;DHT22;8717;53.588;10.176;2022-09-09T07:13:23;14.80;99.90
17202;DHT22;8717;53.588;10.176;2022-09-09T07:15:52;14.90;99.90
17202;DHT22;8717;53.588;10.176;2022-09-09T07:18:19;15.00;99.90
17202;DHT22;8717;53.588;10.176;2022-09-09T07:20:52;15.10;99.90
17202;DHT22;8717;53.588;10.176;2022-09-09T07:23:19;15.10;99.90
17202;DHT22;8717;53.588;10.176;2022-09-09T07:25:46;15.20;99.90
17202;DHT22;8717;53.588;10.176;2022-09-09T07:28:15;15.20;99.90
17202;DHT22;8717;53.588;10.176;2022-09-09T07:30:42;15.20;99.90
17202;DHT22;8717;53.588;10.176;2022-09-09T07:33:10;15.20;99.90
17202;DHT22;8717;53.588;10.176;2022-09-09T07:35:37;15.30;99.90
17202;DHT22;8717;53.588;10.176;2022-09-09T07:38:05;15.30;99.90
17202;DHT22;8717;53.588;10.176;2022-09-09T07:40:35;15.40;99.90
17202;DHT22;8717;53.588;10.176;2022-09-09T07:43:02;15.40;99.90
17202;DHT22;8717;53.588;10.176;2022-09-09T07:45:33;15.50;99.90
17202;DHT22;8717;53.588;10.176;2022-09-09T07:48:02;15.50;99.90
17202;DHT22;8717;53.588;10.176;2022-09-09T07:50:31;15.70;99.90
17202;DHT22;8717;53.588;10.176;2022-09-09T07:52:58;15.90;99.90
17202;DHT22;8717;53.588;10.176;2022-09-09T07:55:28;16.10;99.90
17202;DHT22;8717;53.588;10.176;2022-09-09T07:57:55;16.30;99.90
17202;DHT22;8717;53.588;10.176;2022-09-09T08:00:22;16.50;99.90
17202;DHT22;8717;53.588;10.176;2022-09-09T08:02:53;16.80;99.90
17202;DHT22;8717;53.588;10.176;2022-09-09T08:05:21;17.10;99.90
17202;DHT22;8717;53.588;10.176;2022-09-09T08:07:49;17.60;99.90
17202;DHT22;8717;53.588;10.176;2022-09-09T08:10:16;18.20;99.90
17202;DHT22;8717;53.588;10.176;2022-09-09T08:12:46;18.70;99.90
17202;DHT22;8717;53.588;10.176;2022-09-09T08:15:12;19.20;99.90
17202;DHT22;8717;53.588;10.176;2022-09-09T08:17:40;19.60;99.90
17202;DHT22;8717;53.588;10.176;2022-09-09T08:20:08;19.80;99.90
17202;DHT22;8717;53.588;10.176;2022-09-09T08:22:35;20.10;99.90
17202;DHT22;8717;53.588;10.176;2022-09-09T08:25:05;20.10;99.90
17202;DHT22;8717;53.588;10.176;2022-09-09T08:27:35;20.10;99.90
17202;DHT22;8717;53.588;10.176;2022-09-09T08:30:03;20.00;99.90
17202;DHT22;8717;53.588;10.176;2022-09-09T08:32:30;19.80;99.90
17202;DHT22;8717;53.588;10.176;2022-09-09T08:34:58;19.70;99.90
17202;DHT22;8717;53.588;10.176;2022-09-09T08:37:24;19.50;99.90
17202;DHT22;8717;53.588;10.176;2022-09-09T08:39:51;19.50;99.90
17202;DHT22;8717;53.588;10.176;2022-09-09T08:42:35;19.60;99.90
17202;DHT22;8717;53.588;10.176;2022-09-09T08:45:28;19.80;99.90
17202;DHT22;8717;53.588;10.176;2022-09-09T08:48:16;20.20;99.90
17202;DHT22;8717;53.588;10.176;2022-09-09T08:50:49;20.50;99.90
17202;DHT22;8717;53.588;10.176;2022-09-09T08:53:23;20.70;99.90
17202;DHT22;8717;53.588;10.176;2022-09-09T08:55:53;20.70;99.90
17202;DHT22;8717;53.588;10.176;2022-09-09T08:58:33;20.40;99.90
17202;DHT22;8717;53.588;10.176;2022-09-09T09:04:03;20.00;99.90
17202;DHT22;8717;53.588;10.176;2022-09-09T09:06:43;19.80;99.90
17202;DHT22;8717;53.588;10.176;2022-09-09T09:09:20;19.60;99.90
17202;DHT22;8717;53.588;10.176;2022-09-09T09:11:51;19.40;99.90
17202;DHT22;8717;53.588;10.176;2022-09-09T09:14:21;19.40;99.90
17202;DHT22;8717;53.588;10.176;2022-09-09T09:16:53;19.30;99.90
17202;DHT22;8717;53.588;10.176;2022-09-09T09:19:20;19.40;99.90
17202;DHT22;8717;53.588;10.176;2022-09-09T09:21:57;19.60;99.90
17202;DHT22;8717;53.588;10.176;2022-09-09T09:24:30;19.70;99.90
17202;DHT22;8717;53.588;10.176;2022-09-09T09:27:00;19.90;99.90
17202;DHT22;8717;53.588;10.176;2022-09-09T09:29:38;20.10;99.90
17202;DHT22;8717;53.588;10.176;2022-09-09T09:32:07;20.30;99.90
17202;DHT22;8717;53.588;10.176;2022-09-09T09:34:38;20.50;99.90
17202;DHT22;8717;53.588;10.176;2022-09-09T09:37:15;20.70;99.90
17202;DHT22;8717;53.588;10.176;2022-09-09T09:39:47;20.90;99.90
17202;DHT22;8717;53.588;10.176;2022-09-09T09:42:19;21.00;99.90
17202;DHT22;8717;53.588;10.176;2022-09-09T09:44:48;21.00;99.90
17202;DHT22;8717;53.588;10.176;2022-09-09T09:47:20;21.00;99.90
17202;DHT22;8717;53.588;10.176;2022-09-09T09:49:58;21.00;99.90
17202;DHT22;8717;53.588;10.176;2022-09-09T09:52:31;21.10;99.90
17202;DHT22;8717;53.588;10.176;2022-09-09T09:55:04;21.30;99.90
17202;DHT22;8717;53.588;10.176;2022-09-09T09:57:33;21.60;99.90
17202;DHT22;8717;53.588;10.176;2022-09-09T10:00:14;21.90;99.90
17202;DHT22;8717;53.588;10.176;2022-09-09T10:02:44;22.20;99.90
17202;DHT22;8717;53.588;10.176;2022-09-09T10:05:19;22.60;99.90
17202;DHT22;8717;53.588;10.176;2022-09-09T10:08:01;22.90;99.90
17202;DHT22;8717;53.588;10.176;2022-09-09T10:10:36;23.20;98.50
17202;DHT22;8717;53.588;10.176;2022-09-09T10:13:11;23.40;98.50
17202;DHT22;8717;53.588;10.176;2022-09-09T10:15:46;23.60;98.30
17202;DHT22;8717;53.588;10.176;2022-09-09T10:18:53;23.60;97.60
17202;DHT22;8717;53.588;10.176;2022-09-09T10:21:35;23.60;98.10
17202;DHT22;8717;53.588;10.176;2022-09-09T10:24:26;23.50;98.10
17202;DHT22;8717;53.588;10.176;2022-09-09T10:27:01;23.40;97.80
17202;DHT22;8717;53.588;10.176;2022-09-09T10:29:40;23.50;97.70
17202;DHT22;8717;53.588;10.176;2022-09-09T10:32:30;23.60;97.70
17202;DHT22;8717;53.588;10.176;2022-09-09T10:35:04;23.80;96.50
17202;DHT22;8717;53.588;10.176;2022-09-09T10:37:50;24.10;97.80
17202;DHT22;8717;53.588;10.176;2022-09-09T10:40:26;24.40;97.40
17202;DHT22;8717;53.588;10.176;2022-09-09T10:43:07;24.70;97.20
17202;DHT22;8717;53.588;10.176;2022-09-09T10:45:47;25.00;96.00
17202;DHT22;8717;53.588;10.176;2022-09-09T10:48:28;25.30;96.40
17202;DHT22;8717;53.588;10.176;2022-09-09T10:51:02;25.60;95.10
17202;DHT22;8717;53.588;10.176;2022-09-09T10:53:41;25.80;95.40
17202;DHT22;8717;53.588;10.176;2022-09-09T10:56:11;26.00;94.70
17202;DHT22;8717;53.588;10.176;2022-09-09T10:58:43;26.00;93.40
17202;DHT22;8717;53.588;10.176;2022-09-09T11:01:17;25.90;92.90
17202;DHT22;8717;53.588;10.176;2022-09-09T11:03:51;25.90;93.40
17202;DHT22;8717;53.588;10.176;2022-09-09T11:06:20;25.70;92.40
17202;DHT22;8717;53.588;10.176;2022-09-09T11:08:52;25.40;92.70
17202;DHT22;8717;53.588;10.176;2022-09-09T11:11:25;25.00;93.50
17202;DHT22;8717;53.588;10.176;2022-09-09T11:14:01;24.70;93.20
17202;DHT22;8717;53.588;10.176;2022-09-09T11:16:35;24.40;94.10
17202;DHT22;8717;53.588;10.176;2022-09-09T11:19:13;24.20;94.10
17202;DHT22;8717;53.588;10.176;2022-09-09T11:21:45;24.00;95.10
17202;DHT22;8717;53.588;10.176;2022-09-09T11:24:19;24.10;95.90
17202;DHT22;8717;53.588;10.176;2022-09-09T11:26:52;24.20;94.40
17202;DHT22;8717;53.588;10.176;2022-09-09T11:29:54;24.30;94.90
17202;DHT22;8717;53.588;10.176;2022-09-09T11:32:38;24.50;95.30
17202;DHT22;8717;53.588;10.176;2022-09-09T11:35:26;24.70;94.80
17202;DHT22;8717;53.588;10.176;2022-09-09T11:38:15;24.90;94.70
17202;DHT22;8717;53.588;10.176;2022-09-09T11:40:43;25.10;94.30
17202;DHT22;8717;53.588;10.176;2022-09-09T11:43:15;25.20;94.60
17202;DHT22;8717;53.588;10.176;2022-09-09T11:45:51;25.30;93.60
17202;DHT22;8717;53.588;10.176;2022-09-09T11:48:29;25.40;93.60
17202;DHT22;8717;53.588;10.176;2022-09-09T11:51:03;25.60;93.20
17202;DHT22;8717;53.588;10.176;2022-09-09T11:53:34;25.70;92.00
17202;DHT22;8717;53.588;10.176;2022-09-09T11:56:03;25.90;92.60
17202;DHT22;8717;53.588;10.176;2022-09-09T11:58:38;25.80;92.10
17202;DHT22;8717;53.588;10.176;2022-09-09T12:01:33;25.70;91.40
17202;DHT22;8717;53.588;10.176;2022-09-09T12:06:58;25.00;91.30
17202;DHT22;8717;53.588;10.176;2022-09-09T12:09:35;24.70;92.60
17202;DHT22;8717;53.588;10.176;2022-09-09T12:12:22;24.50;92.40
17202;DHT22;8717;53.588;10.176;2022-09-09T12:14:58;24.20;93.30
17202;DHT22;8717;53.588;10.176;2022-09-09T12:17:27;24.10;92.60
17202;DHT22;8717;53.588;10.176;2022-09-09T12:20:02;23.90;93.50
17202;DHT22;8717;53.588;10.176;2022-09-09T12:22:37;23.80;93.60
17202;DHT22;8717;53.588;10.176;2022-09-09T12:25:16;23.80;93.40
17202;DHT22;8717;53.588;10.176;2022-09-09T12:27:50;23.80;93.70
17202;DHT22;8717;53.588;10.176;2022-09-09T12:30:28;23.90;94.20
17202;DHT22;8717;53.588;10.176;2022-09-09T12:33:01;23.90;94.00
17202;DHT22;8717;53.588;10.176;2022-09-09T12:35:28;23.80;94.20
17202;DHT22;8717;53.588;10.176;2022-09-09T12:37:59;23.70;94.00
17202;DHT22;8717;53.588;10.176;2022-09-09T12:40:29;23.40;94.40
17202;DHT22;8717;53.588;10.176;2022-09-09T12:42:58;23.20;94.60
17202;DHT22;8717;53.588;10.176;2022-09-09T12:45:28;23.00;94.70
17202;DHT22;8717;53.588;10.176;2022-09-09T12:47:57;22.80;95.30
17202;DHT22;8717;53.588;10.176;2022-09-09T12:50:33;22.70;95.40
17202;DHT22;8717;53.588;10.176;2022-09-09T12:53:07;22.50;95.90
17202;DHT22;8717;53.588;10.176;2022-09-09T12:55:37;22.50;96.00
17202;DHT22;8717;53.588;10.176;2022-09-09T12:58:07;22.40;96.30
17202;DHT22;8717;53.588;10.176;2022-09-09T13:00:34;22.30;96.60
17202;DHT22;8717;53.588;10.176;2022-09-09T13:03:03;22.20;96.80
17202;DHT22;8717;53.588;10.176;2022-09-09T13:05:35;22.20;96.90
17202;DHT22;8717;53.588;10.176;2022-09-09T13:08:04;22.10;97.10
17202;DHT22;8717;53.588;10.176;2022-09-09T13:10:35;22.10;97.20
17202;DHT22;8717;53.588;10.176;2022-09-09T13:13:13;22.00;97.20
17202;DHT22;8717;53.588;10.176;2022-09-09T13:15:49;21.90;97.40
17202;DHT22;8717;53.588;10.176;2022-09-09T13:18:20;21.80;97.80
17202;DHT22;8717;53.588;10.176;2022-09-09T13:20:49;21.70;98.00
17202;DHT22;8717;53.588;10.176;2022-09-09T13:23:20;21.60;98.60
17202;DHT22;8717;53.588;10.176;2022-09-09T13:25:54;21.50;99.10
17202;DHT22;8717;53.588;10.176;2022-09-09T13:28:23;21.20;99.30
17202;DHT22;8717;53.588;10.176;2022-09-09T13:30:58;21.00;99.90
17202;DHT22;8717;53.588;10.176;2022-09-09T13:33:33;20.80;99.90
17202;DHT22;8717;53.588;10.176;2022-09-09T13:36:02;20.60;99.90
17202;DHT22;8717;53.588;10.176;2022-09-09T13:38:35;20.40;99.90
17202;DHT22;8717;53.588;10.176;2022-09-09T13:41:04;20.20;99.90
17202;DHT22;8717;53.588;10.176;2022-09-09T13:43:36;20.10;99.90
17202;DHT22;8717;53.588;10.176;2022-09-09T13:46:05;19.90;99.90
17202;DHT22;8717;53.588;10.176;2022-09-09T13:48:32;19.70;99.90
17202;DHT22;8717;53.588;10.176;2022-09-09T13:51:01;19.60;99.90
17202;DHT22;8717;53.588;10.176;2022-09-09T13:53:28;19.50;99.90
17202;DHT22;8717;53.588;10.176;2022-09-09T13:55:57;19.40;99.90
17202;DHT22;8717;53.588;10.176;2022-09-09T13:58:25;19.20;99.90
17202;DHT22;8717;53.588;10.176;2022-09-09T14:00:52;19.10;99.90
17202;DHT22;8717;53.588;10.176;2022-09-09T14:03:19;18.90;99.90
17202;DHT22;8717;53.588;10.176;2022-09-09T14:05:46;18.70;99.90
17202;DHT22;8717;53.588;10.176;2022-09-09T14:08:20;18.50;99.90
17202;DHT22;8717;53.588;10.176;2022-09-09T14:10:47;18.30;99.90
17202;DHT22;8717;53.588;10.176;2022-09-09T14:13:16;18.20;99.90
17202;DHT22;8717;53.588;10.176;2022-09-09T14:15:42;18.00;99.90
17202;DHT22;8717;53.588;10.176;2022-09-09T14:18:11;17.80;99.90
17202;DHT22;8717;53.588;10.176;2022-09-09T14:20:38;17.60;99.90
17202;DHT22;8717;53.588;10.176;2022-09-09T14:23:05;17.60;99.90
17202;DHT22;8717;53.588;10.176;2022-09-09T14:25:32;17.40;99.90
17202;DHT22;8717;53.588;10.176;2022-09-09T14:27:58;17.40;99.90
17202;DHT22;8717;53.588;10.176;2022-09-09T14:30:27;17.30;99.90
17202;DHT22;8717;53.588;10.176;2022-09-09T14:32:53;17.20;99.90
17202;DHT22;8717;53.588;10.176;2022-09-09T14:35:20;17.10;99.90
17202;DHT22;8717;53.588;10.176;2022-09-09T14:37:47;17.10;99.90
17202;DHT22;8717;53.588;10.176;2022-09-09T14:40:14;17.00;99.90
17202;DHT22;8717;53.588;10.176;2022-09-09T14:42:41;16.90;99.90
17202;DHT22;8717;53.588;10.176;2022-09-09T14:45:09;16.90;99.90
17202;DHT22;8717;53.588;10.176;2022-09-09T14:47:37;16.70;99.90
17202;DHT22;8717;53.588;10.176;2022-09-09T14:50:04;16.60;99.90
17202;DHT22;8717;53.588;10.176;2022-09-09T14:52:31;16.60;99.90
17202;DHT22;8717;53.588;10.176;2022-09-09T14:54:58;16.50;99.90
17202;DHT22;8717;53.588;10.176;2022-09-09T14:57:28;16.40;99.90
17202;DHT22;8717;53.588;10.176;2022-09-09T14:59:54;16.30;99.90
17202;DHT22;8717;53.588;10.176;2022-09-09T15:02:22;16.20;99.90
17202;DHT22;8717;53.588;10.176;2022-09-09T15:04:50;16.20;99.90
17202;DHT22;8717;53.588;10.176;2022-09-09T15:07:18;16.10;99.90
17202;DHT22;8717;53.588;10.176;2022-09-09T15:09:45;16.00;99.90
17202;DHT22;8717;53.588;10.176;2022-09-09T15:12:13;16.00;99.90
17202;DHT22;8717;53.588;10.176;2022-09-09T15:14:40;15.90;99.90
17202;DHT22;8717;53.588;10.176;2022-09-09T15:17:08;15.80;99.90
17202;DHT22;8717;53.588;10.176;2022-09-09T15:19:34;15.80;99.90
17202;DHT22;8717;53.588;10.176;2022-09-09T15:22:03;15.70;99.90
17202;DHT22;8717;53.588;10.176;2022-09-09T15:24:31;15.70;99.90
17202;DHT22;8717;53.588;10.176;2022-09-09T15:26:58;15.70;99.90
17202;DHT22;8717;53.588;10.176;2022-09-09T15:29:27;15.60;99.90
17202;DHT22;8717;53.588;10.176;2022-09-09T15:31:54;15.70;99.90
17202;DHT22;8717;53.588;10.176;2022-09-09T15:34:21;15.70;99.90
17202;DHT22;8717;53.588;10.176;2022-09-09T15:36:48;15.70;99.90
17202;DHT22;8717;53.588;10.176;2022-09-09T15:39:17;15.60;99.90
17202;DHT22;8717;53.588;10.176;2022-09-09T15:41:50;15.70;99.90
17202;DHT22;8717;53.588;10.176;2022-09-09T15:44:17;15.70;99.90
17202;DHT22;8717;53.588;10.176;2022-09-09T15:46:45;15.70;99.90
17202;DHT22;8717;53.588;10.176;2022-09-09T15:49:14;15.70;99.90
17202;DHT22;8717;53.588;10.176;2022-09-09T15:51:42;15.80;99.90
17202;DHT22;8717;53.588;10.176;2022-09-09T15:54:11;15.90;99.90
17202;DHT22;8717;53.588;10.176;2022-09-09T15:56:40;15.80;99.90
17202;DHT22;8717;53.588;10.176;2022-09-09T15:59:07;15.90;99.90
17202;DHT22;8717;53.588;10.176;2022-09-09T16:01:35;15.90;99.90
17202;DHT22;8717;53.588;10.176;2022-09-09T16:04:02;16.00;99.90